East Lynne, Missouri
Current Conditions -  °F | °C
As of 1:53 AM on Sunday 21 Dec 2014 (Local Time) from KLXT Reporting Station
Clear Clear  
Wind Chill: 29°   Ceiling: Unl
Heat Index: 35°   Visibility: 8mi
Dew Point: 32°   Wind: 8mph
Humidity: 89%   Direction: 180°S
Pressure: 30.1"   Gusts: NA
Location:  38.67°N, 94.23°W
Report Text: KLXT 210753Z AUTO 18007KT 8SM CLR 02/00 A3010 RMK AO2 SLP199 T00170000 TSNO
Loading
Personal Weather Stations






























Interactive Weather Map New forecast layout! Learn more

10-Day Weather Forecast

Advertisements
Track Severe Weather on mobile